createdAt,value
2018-08-12T00:08:59.692Z,0
2018-08-12T00:18:59.562Z,0
2018-08-12T00:28:59.522Z,0
2018-08-12T00:38:59.713Z,0
2018-08-12T00:48:59.607Z,0
2018-08-12T00:58:59.676Z,0
2018-08-12T01:09:00.544Z,0
2018-08-12T01:18:59.600Z,0
2018-08-12T01:28:59.537Z,0
2018-08-12T01:38:59.493Z,0
2018-08-12T01:48:59.586Z,0
2018-08-12T01:58:59.547Z,0
2018-08-12T02:08:59.495Z,0
2018-08-12T02:18:59.564Z,0
2018-08-12T02:28:59.511Z,0
2018-08-12T02:38:59.485Z,0
2018-08-12T02:48:59.546Z,0
2018-08-12T02:58:59.491Z,0
2018-08-12T03:08:59.487Z,0
2018-08-12T03:18:59.560Z,0
2018-08-12T03:28:59.576Z,4
2018-08-12T03:38:59.523Z,8
2018-08-12T03:48:59.570Z,32
2018-08-12T03:58:59.504Z,96
2018-08-12T04:08:59.497Z,228
2018-08-12T04:18:59.587Z,536
2018-08-12T04:28:59.491Z,844
2018-08-12T04:38:59.497Z,1412
2018-08-12T04:49:01.521Z,2000
2018-08-12T04:58:59.489Z,3216
2018-08-12T05:08:59.512Z,5224
2018-08-12T05:18:59.488Z,5540
2018-08-12T05:28:59.488Z,8152
2018-08-12T05:38:59.497Z,8736
2018-08-12T05:48:59.455Z,8100
2018-08-12T05:59:06.042Z,7220
2018-08-12T06:09:00.614Z,8104
2018-08-12T06:19:00.541Z,7888
2018-08-12T06:28:59.466Z,8204
2018-08-12T06:38:59.461Z,6184
2018-08-12T06:49:00.566Z,5836
2018-08-12T06:58:59.475Z,6032
2018-08-12T07:09:00.489Z,8372
2018-08-12T07:18:59.542Z,45248
2018-08-12T07:29:01.655Z,60480
2018-08-12T07:38:59.534Z,54656
2018-08-12T07:48:59.519Z,26432
2018-08-12T07:58:59.494Z,48960
2018-08-12T08:08:59.513Z,31264
2018-08-12T08:18:59.513Z,24128
2018-08-12T08:28:59.528Z,36320
2018-08-12T08:38:59.508Z,64544
2018-08-12T08:48:59.576Z,58080
2018-08-12T08:59:04.169Z,9652
2018-08-12T09:08:59.852Z,8360
2018-08-12T09:19:00.660Z,9108
2018-08-12T09:28:59.552Z,8360
2018-08-12T09:38:59.531Z,8028
2018-08-12T09:48:59.603Z,7144
2018-08-12T09:58:59.688Z,7084
2018-08-12T10:08:59.578Z,7996
2018-08-12T10:18:59.570Z,6968
2018-08-12T10:28:59.721Z,6252
2018-08-12T10:38:59.729Z,6488
2018-08-12T10:48:59.668Z,6048
2018-08-12T10:58:59.586Z,5756
2018-08-12T11:09:00.651Z,5144
2018-08-12T11:18:59.547Z,5800
2018-08-12T11:28:59.652Z,6364
2018-08-12T11:39:00.849Z,6892
2018-08-12T11:49:00.436Z,7956
2018-08-12T11:58:59.562Z,7464
2018-08-12T12:08:59.843Z,6036
2018-08-12T12:19:00.339Z,5116
2018-08-12T12:28:59.623Z,5052
2018-08-12T12:38:59.738Z,4784
2018-08-12T12:49:00.719Z,5016
2018-08-12T12:58:59.599Z,4520
2018-08-12T13:08:59.705Z,5032
2018-08-12T13:19:01.633Z,5380
2018-08-12T13:29:00.257Z,5436
2018-08-12T13:38:59.620Z,5284
2018-08-12T13:49:00.147Z,9076
2018-08-12T13:58:59.830Z,5964
2018-08-12T14:08:59.846Z,6484
2018-08-12T14:19:00.056Z,5736
2018-08-12T14:28:59.645Z,6216
2018-08-12T14:38:59.646Z,6200
2018-08-12T14:48:59.705Z,5784
2018-08-12T14:59:03.896Z,5928
2018-08-12T15:08:59.630Z,5828
2018-08-12T15:18:59.678Z,5260
2018-08-12T15:29:00.751Z,4920
2018-08-12T15:39:03.318Z,5988
2018-08-12T15:48:59.686Z,5540
2018-08-12T15:58:59.669Z,5744
2018-08-12T16:08:59.821Z,5896
2018-08-12T16:19:00.407Z,6272
2018-08-12T16:28:59.665Z,5420
2018-08-12T16:38:59.685Z,5388
2018-08-12T16:48:59.724Z,4940
2018-08-12T16:58:59.696Z,4716
2018-08-12T17:08:59.660Z,5332
2018-08-12T17:18:59.670Z,4240
2018-08-12T17:28:59.704Z,3392
2018-08-12T17:39:05.101Z,3192
2018-08-12T17:48:59.743Z,2792
2018-08-12T17:58:59.653Z,2092
2018-08-12T18:08:59.850Z,1520
2018-08-12T18:18:59.673Z,1092
2018-08-12T18:28:59.678Z,836
2018-08-12T18:38:59.711Z,568
2018-08-12T18:48:59.739Z,320
2018-08-12T18:58:59.655Z,140
2018-08-12T19:08:59.719Z,56
2018-08-12T19:18:59.679Z,16
2018-08-12T19:28:59.809Z,4
2018-08-12T19:38:59.847Z,0
2018-08-12T19:48:59.721Z,0
2018-08-12T19:58:59.697Z,0
2018-08-12T20:08:59.875Z,0
2018-08-12T20:18:59.717Z,0
2018-08-12T20:28:59.704Z,0
2018-08-12T20:38:59.694Z,0
2018-08-12T20:48:59.715Z,0
2018-08-12T20:58:59.683Z,0
2018-08-12T21:09:00.358Z,0
2018-08-12T21:18:59.703Z,0
2018-08-12T21:28:59.678Z,0
2018-08-12T21:38:59.668Z,0
2018-08-12T21:48:59.661Z,0
2018-08-12T21:58:59.669Z,0
2018-08-12T22:08:59.713Z,0
2018-08-12T22:19:00.218Z,0
2018-08-12T22:28:59.792Z,0
2018-08-12T22:38:59.682Z,0
2018-08-12T22:49:00.820Z,0
2018-08-12T22:59:05.900Z,0
2018-08-12T23:09:05.697Z,0
2018-08-12T23:19:07.375Z,0
2018-08-12T23:29:06.985Z,0
2018-08-12T23:39:06.796Z,0
2018-08-12T23:49:01.820Z,0
2018-08-12T23:59:04.247Z,0
